Terminal Aerodrome Forecast
Issued by NWS

Home | Current Version | Previous Version | Text Only | Print | Product List | Glossary On
Versions: 1 2 3 4 5 6 7 8 9 10 11 12 13 14 15 16 17 18 19 20 21 22 23 24 25 26 27 28
000
FTUS41 KRNK 050541
TAFBCB
TAF
KBCB 050541Z 0506/0606 00000KT P6SM VCSH OVC045
     FM050800 30004KT 4SM -SHRA BR OVC025
     FM051400 31008KT 6SM -SHRA OVC015
     FM052000 32010G20KT 5SM SHRA BR OVC020
     FM060100 32004KT 5SM -SHRA BR OVC012=

USA.gov is the U.S. government's official web portal to all federal, state and local government web resources and services.